Terminal Aerodrome Forecast
Issued by NWS Bismarck, ND

Home | Current Version | Previous Version | Text Only | Print | Product List | Glossary On
Versions: 1 2 3 4 5 6 7 8 9 10 11 12 13 14 15 16 17 18 19 20
000
FTUS43 KBIS 051305 AAB
TAFBIS
TAF AMD
KBIS 051305Z 0513/0612 30006KT 6SM BR VCTS BKN009 OVC060CB
      TEMPO 0513/0515 VRB20G30KT 2SM +TSRA BKN020 OVC040CB
     FM051700 01015KT P6SM -SHRA VCTS SCT025 BKN035CB OVC070
     FM060200 36009KT P6SM BKN035 OVC070
     FM060900 33005KT P6SM SCT070=

USA.gov is the U.S. government's official web portal to all federal, state and local government web resources and services.